createdAt,value
2022-10-11T00:00:02.391Z,8.78
2022-10-11T00:05:01.978Z,8.56
2022-10-11T00:10:01.920Z,8.39
2022-10-11T00:15:02.239Z,8.52
2022-10-11T00:20:02.792Z,8.33
2022-10-11T00:25:02.739Z,8.34
2022-10-11T00:30:02.795Z,8.33
2022-10-11T00:35:02.042Z,8.15
2022-10-11T00:40:02.326Z,8.11
2022-10-11T00:45:02.236Z,8.02
2022-10-11T00:50:01.595Z,7.96
2022-10-11T00:55:02.323Z,7.91
2022-10-11T01:00:02.262Z,7.88
2022-10-11T01:05:27.708Z,7.79
2022-10-11T01:10:01.759Z,7.72
2022-10-11T01:15:01.678Z,7.73
2022-10-11T01:20:01.392Z,7.69
2022-10-11T01:25:01.867Z,7.43
2022-10-11T01:30:01.702Z,7.53
2022-10-11T01:35:02.091Z,7.44
2022-10-11T01:40:01.926Z,7.35
2022-10-11T01:45:01.932Z,7.27
2022-10-11T01:50:02.207Z,7.19
2022-10-11T01:55:09.512Z,7.26
2022-10-11T02:00:01.887Z,7.11
2022-10-11T02:05:02.190Z,7.07
2022-10-11T02:10:02.151Z,7.05
2022-10-11T02:15:01.521Z,6.91
2022-10-11T02:20:01.401Z,6.83
2022-10-11T02:25:01.975Z,6.94
2022-10-11T02:30:01.494Z,7.15
2022-10-11T02:35:02.035Z,7.15
2022-10-11T02:40:01.742Z,7.2
2022-10-11T02:45:01.370Z,7.22
2022-10-11T02:50:01.549Z,7.17
2022-10-11T02:55:01.950Z,7.15
2022-10-11T03:00:01.643Z,7.08
2022-10-11T03:05:01.408Z,7.08
2022-10-11T03:10:01.576Z,6.93
2022-10-11T03:15:01.335Z,6.68
2022-10-11T03:20:02.008Z,6.65
2022-10-11T03:25:04.372Z,6.66
2022-10-11T03:30:01.957Z,6.73
2022-10-11T03:35:01.566Z,6.68
2022-10-11T03:40:02.207Z,6.73
2022-10-11T03:45:01.799Z,6.82
2022-10-11T03:50:01.592Z,6.85
2022-10-11T03:55:01.557Z,7.02
2022-10-11T04:00:01.299Z,7.15
2022-10-11T04:05:01.537Z,7.24
2022-10-11T04:10:01.534Z,7.42
2022-10-11T04:15:01.300Z,7.54
2022-10-11T04:20:01.600Z,7.64
2022-10-11T04:25:01.404Z,7.74
2022-10-11T04:30:01.900Z,7.86
2022-10-11T04:35:02.849Z,7.96
2022-10-11T04:40:02.376Z,8.04
2022-10-11T04:45:01.460Z,8.04
2022-10-11T04:50:01.749Z,8.13
2022-10-11T04:55:01.384Z,8.17
2022-10-11T05:00:01.668Z,8.07
2022-10-11T05:05:02.057Z,8.03
2022-10-11T05:10:02.536Z,8.12
2022-10-11T05:15:02.112Z,8.14
2022-10-11T05:20:02.434Z,8.16
2022-10-11T05:25:01.784Z,8.22
2022-10-11T05:30:01.937Z,8.35
2022-10-11T05:35:01.959Z,8.46
2022-10-11T05:40:01.657Z,8.56
2022-10-11T05:45:02.178Z,8.65
2022-10-11T05:50:02.024Z,8.7
2022-10-11T05:55:01.580Z,8.74
2022-10-11T06:00:02.155Z,8.82
2022-10-11T06:05:02.089Z,8.82
2022-10-11T06:10:01.613Z,8.8
2022-10-11T06:15:02.212Z,8.83
2022-10-11T06:20:02.227Z,8.8
2022-10-11T06:25:01.255Z,8.89
2022-10-11T06:30:01.714Z,8.89
2022-10-11T06:35:01.561Z,8.83
2022-10-11T06:40:01.393Z,8.9
2022-10-11T06:45:01.969Z,8.89
2022-10-11T06:50:01.540Z,8.83
2022-10-11T06:55:02.153Z,8.86
2022-10-11T07:00:02.083Z,8.92
2022-10-11T07:05:01.360Z,9.04
2022-10-11T07:10:01.359Z,9.02
2022-10-11T07:15:02.155Z,9.06
2022-10-11T07:20:01.544Z,9.05
2022-10-11T07:25:01.748Z,9.09
2022-10-11T07:30:01.534Z,9.05
2022-10-11T07:35:02.337Z,9.11
2022-10-11T07:40:01.916Z,9.03
2022-10-11T07:45:01.342Z,9.1
2022-10-11T07:50:02.097Z,9.29
2022-10-11T07:55:02.030Z,9.25
2022-10-11T08:00:01.950Z,9.2
2022-10-11T08:05:01.888Z,9.16
2022-10-11T08:10:01.485Z,9.27
2022-10-11T08:15:02.073Z,9.26
2022-10-11T08:20:01.725Z,9.1
2022-10-11T08:25:01.662Z,9.08
2022-10-11T08:30:01.651Z,9.12
2022-10-11T08:35:01.663Z,9.26
2022-10-11T08:40:01.659Z,9.26
2022-10-11T08:45:11.515Z,9.3
2022-10-11T08:50:02.053Z,9.64
2022-10-11T08:55:01.689Z,9.66
2022-10-11T09:00:01.394Z,9.41
2022-10-11T09:05:01.803Z,9.45
2022-10-11T09:10:01.804Z,9.51
2022-10-11T09:15:01.355Z,9.76
2022-10-11T09:20:02.118Z,9.76
2022-10-11T09:25:02.371Z,9.84
2022-10-11T09:30:01.548Z,9.84
2022-10-11T09:35:01.665Z,10
2022-10-11T09:40:02.056Z,10.22
2022-10-11T10:10:01.894Z,11.49
2022-10-11T10:15:01.615Z,11.64
2022-10-11T10:20:01.435Z,11.92
2022-10-11T10:25:01.569Z,12.25
2022-10-11T10:30:02.036Z,12.04
2022-10-11T10:35:01.516Z,11.79
2022-10-11T10:40:01.424Z,11.58
2022-10-11T10:45:01.940Z,11.31
2022-10-11T10:50:01.582Z,11.2
2022-10-11T10:55:01.936Z,11.17
2022-10-11T11:00:01.893Z,11.26
2022-10-11T11:05:01.830Z,11.62
2022-10-11T11:10:01.279Z,11.98
2022-10-11T11:15:01.315Z,12.06
2022-10-11T11:20:02.098Z,11.99
2022-10-11T11:25:01.261Z,12.07
2022-10-11T11:30:01.878Z,12.06
2022-10-11T11:35:01.924Z,11.66
2022-10-11T11:40:02.054Z,11.63
2022-10-11T11:45:01.993Z,11.78
2022-10-11T11:50:01.324Z,12.27
2022-10-11T11:55:04.163Z,12.35
2022-10-11T12:00:02.252Z,12.22
2022-10-11T12:05:01.574Z,11.99
2022-10-11T12:10:01.581Z,11.89
2022-10-11T12:15:01.823Z,11.76
2022-10-11T12:20:01.646Z,11.86
2022-10-11T12:25:01.411Z,12.05
2022-10-11T12:30:01.835Z,12.47
2022-10-11T12:35:02.076Z,12.66
2022-10-11T12:40:02.112Z,12.82
2022-10-11T12:45:01.422Z,12.77
2022-10-11T12:50:01.547Z,12.58
2022-10-11T12:55:01.774Z,12.46
2022-10-11T13:00:01.909Z,12.45
2022-10-11T13:05:01.870Z,12.62
2022-10-11T13:10:01.940Z,12.62
2022-10-11T13:15:02.022Z,12.57
2022-10-11T13:20:01.717Z,12.78
2022-10-11T13:25:01.636Z,12.72
2022-10-11T13:30:02.005Z,12.76
2022-10-11T13:35:01.478Z,12.84
2022-10-11T13:40:01.340Z,12.89
2022-10-11T13:45:02.133Z,12.95
2022-10-11T13:50:01.740Z,12.93
2022-10-11T13:55:01.624Z,12.93
2022-10-11T14:00:02.110Z,12.96
2022-10-11T14:05:01.796Z,12.96
2022-10-11T14:10:02.094Z,12.95
2022-10-11T14:15:01.801Z,12.94
2022-10-11T14:20:06.169Z,12.9
2022-10-11T14:25:01.579Z,12.72
2022-10-11T14:30:25.153Z,12.87
2022-10-11T14:35:01.246Z,12.84
2022-10-11T14:40:02.125Z,12.79
2022-10-11T14:45:01.970Z,12.78
2022-10-11T14:50:01.734Z,12.69
2022-10-11T14:55:01.682Z,12.63
2022-10-11T15:00:01.770Z,12.71
2022-10-11T15:05:01.849Z,12.65
2022-10-11T15:10:01.794Z,12.49
2022-10-11T15:15:02.290Z,12.35
2022-10-11T15:20:02.105Z,12.5
2022-10-11T15:25:02.153Z,12.41
2022-10-11T15:30:01.861Z,12.36
2022-10-11T15:35:02.221Z,12.3
2022-10-11T15:40:01.326Z,12.29
2022-10-11T15:45:02.120Z,12.29
2022-10-11T15:50:02.104Z,12.14
2022-10-11T15:55:02.190Z,11.98
2022-10-11T16:00:01.988Z,11.92
2022-10-11T16:05:02.037Z,11.87
2022-10-11T16:10:01.360Z,11.74
2022-10-11T16:15:02.210Z,11.53
2022-10-11T16:20:01.439Z,11.43
2022-10-11T16:25:02.187Z,11.12
2022-10-11T16:30:01.847Z,10.94
2022-10-11T16:35:01.886Z,10.71
2022-10-11T16:40:02.097Z,10.56
2022-10-11T16:45:01.426Z,10.35
2022-10-11T16:50:01.238Z,10.23
2022-10-11T16:55:01.766Z,10.15
2022-10-11T17:00:02.303Z,10.07
2022-10-11T17:05:02.034Z,10.07
2022-10-11T17:10:01.453Z,9.91
2022-10-11T17:15:01.227Z,9.68
2022-10-11T17:20:01.746Z,9.55
2022-10-11T17:25:01.545Z,9.35
2022-10-11T17:30:01.605Z,9.18
2022-10-11T17:35:01.887Z,9.07
2022-10-11T17:40:02.024Z,9.06
2022-10-11T17:45:02.118Z,9.07
2022-10-11T17:50:02.092Z,8.88
2022-10-11T17:55:01.359Z,8.76
2022-10-11T18:00:02.230Z,8.53
2022-10-11T18:05:01.917Z,8.45
2022-10-11T18:10:01.677Z,8.36
2022-10-11T18:15:01.403Z,8.32
2022-10-11T18:20:01.594Z,8.32
2022-10-11T18:25:02.132Z,8.24
2022-10-11T18:30:01.698Z,8.15
2022-10-11T18:35:02.071Z,8.08
2022-10-11T18:40:01.913Z,8.11
2022-10-11T18:45:01.869Z,8.12
2022-10-11T18:50:01.748Z,8.07
2022-10-11T18:55:02.107Z,8.02
2022-10-11T19:00:11.711Z,7.9
2022-10-11T19:05:01.875Z,7.93
2022-10-11T19:10:02.225Z,7.83
2022-10-11T19:15:01.539Z,7.82
2022-10-11T19:20:02.074Z,7.73
2022-10-11T19:25:02.092Z,7.6
2022-10-11T19:30:01.912Z,7.47
2022-10-11T19:35:01.905Z,7.33
2022-10-11T19:40:01.562Z,7.31
2022-10-11T19:45:01.640Z,7.49
2022-10-11T19:50:01.864Z,7.41
2022-10-11T19:55:01.642Z,7.65
2022-10-11T20:00:01.735Z,7.53
2022-10-11T20:05:01.535Z,7.46
2022-10-11T20:10:01.560Z,7.37
2022-10-11T20:15:01.742Z,7.41
2022-10-11T20:20:02.011Z,7.44
2022-10-11T20:25:02.136Z,7.32
2022-10-11T20:30:01.655Z,7.35
2022-10-11T20:35:02.240Z,7.3
2022-10-11T20:40:02.148Z,7.31
2022-10-11T20:45:01.483Z,7.3
2022-10-11T20:50:01.379Z,7.32
2022-10-11T20:55:02.088Z,7.25
2022-10-11T21:00:01.686Z,7.14
2022-10-11T21:10:03.340Z,7.11
2022-10-11T21:20:02.415Z,6.9
2022-10-11T21:25:01.770Z,6.89
2022-10-11T21:30:01.472Z,6.84
2022-10-11T21:35:02.197Z,6.84
2022-10-11T21:40:01.615Z,6.55
2022-10-11T21:45:01.602Z,6.59
2022-10-11T21:50:01.712Z,6.43
2022-10-11T21:55:02.022Z,6.38
2022-10-11T22:00:02.260Z,6.52
2022-10-11T22:05:01.975Z,6.55
2022-10-11T22:10:02.441Z,6.24
2022-10-11T22:15:02.225Z,6.13
2022-10-11T22:20:01.520Z,5.92
2022-10-11T22:25:01.557Z,5.79
2022-10-11T22:30:02.051Z,5.72
2022-10-11T22:35:01.523Z,5.78
2022-10-11T22:40:01.467Z,5.66
2022-10-11T22:45:01.378Z,5.45
2022-10-11T22:50:01.654Z,5.43
2022-10-11T22:55:01.609Z,5.39
2022-10-11T23:00:01.856Z,5.34
2022-10-11T23:05:01.283Z,5.39
2022-10-11T23:10:01.895Z,5.51
2022-10-11T23:15:01.836Z,5.35
2022-10-11T23:20:01.530Z,5.25
2022-10-11T23:25:01.507Z,5.21
2022-10-11T23:30:01.852Z,5.35
2022-10-11T23:35:02.221Z,5.25
2022-10-11T23:40:02.068Z,5.07
2022-10-11T23:45:02.106Z,4.97
2022-10-11T23:50:01.514Z,5
2022-10-11T23:55:01.652Z,4.98
